»·PEaware :: STRYK11 KPHX-KPSP

STRYK11 :: KPHX-KPSP

FLIGHT INFORMATION

Flight Status: Arrived
Operator: Unknown
More flights by this operator :: More flights under this callsign
Pilot: Kevin M. (7)
Aircraft: Unknown
(F35)
More flights by this aircraft type
Origin: KPHX Phoenix Sky Harbor Intl
United States
Destination: KPSP Palm Springs Intl
United States
More flights between these airports :: More routes between these airports
Route: KEENS2 HRRBR CURIV DECAS SBONO1
File this flight plan on PilotEdge
Remarks:
Altitude:
(Current/Filed)
28,000ft
Speed:
(Current/Filed)
550kts
Departed: 22-Oct-19 10:42 AM
Arrived: 22-Oct-19 11:16 AM
Distance/Time
Traveled:
226nm/0:33
Distance/Time
To Go:
Arrived

Flight Plot

Page will automatically refresh every two minutes.

Flight plan parsing failed; only flown route is shown


Map Options




Map Legend


Flown Route
Filed Route
Departure Airport
Arrival Airport
Navaid (VOR, NDB)
Fix

Horizontal Profiles

Position Reports

Time Latitude Longitude Heading Altitude Ground
Speed
22-Oct-19 10:17 33.427213 -112.013930 360 1119ft 0kts
22-Oct-19 10:18 33.427213 -112.013930 360 1119ft 0kts
22-Oct-19 10:19 33.427213 -112.013930 360 1119ft 0kts
22-Oct-19 10:20 33.427213 -112.013930 360 1119ft 0kts
22-Oct-19 10:21 33.427213 -112.013930 360 1119ft 0kts
22-Oct-19 10:22 33.427213 -112.013930 360 1119ft 0kts
22-Oct-19 10:23 33.427213 -112.013930 360 1119ft 0kts
22-Oct-19 10:24 33.427213 -112.013930 360 1119ft 0kts
22-Oct-19 10:25 33.427213 -112.013930 360 1119ft 0kts
22-Oct-19 10:26 33.427213 -112.013930 360 1119ft 0kts
22-Oct-19 10:27 33.427213 -112.013930 360 1119ft 0kts
22-Oct-19 10:28 33.427213 -112.013930 360 1119ft 0kts
22-Oct-19 10:29 33.427213 -112.013930 360 1119ft 0kts
22-Oct-19 10:30 33.427213 -112.013930 360 1119ft 0kts
22-Oct-19 10:31 33.427213 -112.013930 360 1119ft 0kts
22-Oct-19 10:32 33.427213 -112.013930 360 1119ft 0kts
22-Oct-19 10:33 33.427213 -112.013930 360 1119ft 0kts
22-Oct-19 10:33 33.427213 -112.013930 360 1119ft 0kts
22-Oct-19 10:35 33.427213 -112.013930 360 1119ft 0kts
22-Oct-19 10:36 33.427213 -112.013930 360 1119ft 0kts
22-Oct-19 10:36 33.427366 -112.013929 0 1119ft 4kts
22-Oct-19 10:37 33.427757 -112.017649 269 1119ft 19kts
22-Oct-19 10:39 33.427762 -112.024884 270 1117ft 20kts
22-Oct-19 10:39 33.429656 -112.026957 357 1116ft 13kts
22-Oct-19 10:40 33.431068 -112.026686 91 1115ft 0kts
22-Oct-19 10:41 33.431566 -111.987809 87 6008ft 215kts
22-Oct-19 10:42 33.427467 -111.914300 125 16002ft 263kts
22-Oct-19 10:43 33.346225 -111.934505 234 23184ft 468kts
22-Oct-19 10:44 33.325317 -112.116724 289 27164ft 616kts
22-Oct-19 10:45 33.364890 -112.311039 284 28029ft 581kts
22-Oct-19 10:46 33.398497 -112.488552 284 28039ft 527kts
22-Oct-19 10:47 33.430834 -112.660625 284 28026ft 530kts
22-Oct-19 10:48 33.463158 -112.834013 284 28026ft 538kts
22-Oct-19 10:49 33.495881 -113.011015 284 28027ft 545kts
22-Oct-19 10:50 33.528421 -113.188524 284 28026ft 545kts
22-Oct-19 10:51 33.560703 -113.366120 284 28025ft 545kts
22-Oct-19 10:52 33.592732 -113.543913 284 28025ft 545kts
22-Oct-19 10:53 33.624590 -113.722251 283 28034ft 545kts
22-Oct-19 10:54 33.656378 -113.900099 284 28036ft 544kts
22-Oct-19 10:55 33.688921 -114.077864 284 28035ft 544kts
22-Oct-19 10:56 33.721463 -114.257034 284 27560ft 549kts
22-Oct-19 10:57 33.753661 -114.435764 284 26561ft 553kts
22-Oct-19 10:58 33.777568 -114.621108 277 25546ft 567kts
22-Oct-19 10:59 33.788552 -114.811675 275 24192ft 567kts
22-Oct-19 11:00 33.799000 -114.997750 275 21221ft 548kts
22-Oct-19 11:01 33.808930 -115.179045 275 18322ft 556kts
22-Oct-19 11:02 33.818754 -115.364298 275 15608ft 546kts
22-Oct-19 11:03 33.849330 -115.536887 292 12882ft 520kts
22-Oct-19 11:04 33.898393 -115.688860 292 11120ft 458kts
22-Oct-19 11:05 33.910295 -115.827883 267 10475ft 413kts
22-Oct-19 11:06 33.901740 -115.955352 267 10201ft 353kts
22-Oct-19 11:07 33.872643 -116.056501 240 10097ft 302kts
22-Oct-19 11:08 33.828987 -116.141383 239 9031ft 293kts
22-Oct-19 11:09 33.780201 -116.219196 228 7275ft 290kts
22-Oct-19 11:10 33.746888 -116.299114 247 6395ft 249kts
22-Oct-19 11:11 33.738285 -116.379678 264 4366ft 208kts
22-Oct-19 11:12 33.758051 -116.442011 316 2682ft 195kts
22-Oct-19 11:13 33.799808 -116.481011 325 947ft 171kts
22-Oct-19 11:14 33.832050 -116.509774 317 437ft 89kts
22-Oct-19 11:15 33.836360 -116.514814 213 457ft 0kts
22-Oct-19 11:16 33.829719 -116.509851 144 433ft 42kts
22-Oct-19 11:17 33.825613 -116.508969 329 423ft 11kts
22-Oct-19 11:18 33.825598 -116.509231 82 423ft 0kts
22-Oct-19 11:19 33.825598 -116.509231 82 423ft 0kts
22-Oct-19 11:20 33.825598 -116.509231 82 423ft 0kts
22-Oct-19 11:21 33.825598 -116.509231 82 423ft 0kts
22-Oct-19 11:22 33.825598 -116.509231 82 423ft 0kts

Navigation Log

Ident Type
Flight plan parsing failed, navigation log unavailable